Terminal Aerodrome Forecast
Issued by NWS Sioux Falls, SD

Home | Current Version | Previous Version | Graphics & Text | Print | Product List | Glossary On
Versions: 1 2 3 4 5 6 7 8 9 10 11 12 13 14 15 16 17 18 19 20 21 22 23 24 25 26
000
FTUS43 KFSD 242300 RRA
TAFFSD
TAF
KFSD 242344Z 2500/2524 16017G26KT P6SM BKN070
     FM250300 15015G22KT P6SM SCT200
     FM250900 15011KT P6SM FEW008 SCT150
     FM251100 14007KT P6SM SCT008
     FM251400 VRB05KT P6SM SCT008 BKN010
     FM251700 33010KT P6SM BKN025
     FM251900 34010KT P6SM SCT035=

USA.gov is the U.S. government's official web portal to all federal, state and local government web resources and services.